| time (UTC) | temp F | wind direction | speed MPH | gust MPH | rain 1hr in | rain 24hr in | rain mn in | humidity % | barometer mb |
| 20260509034542 | 60 | 319 | 2.0 | 5.0 | 0.00 | 0.00 | 0.00 | 37 | 1002.3 |
| 20260509033043 | 60 | 323 | 3.0 | 9.0 | 0.00 | 0.00 | 0.00 | 36 | 1002.2 |
| 20260509031547 | 61 | 324 | 3.0 | 9.0 | 0.00 | 0.00 | 0.00 | 35 | 1002.1 |
| 20260509030045 | 62 | 329 | 4.0 | 12.0 | 0.00 | 0.00 | 0.00 | 34 | 1001.9 |
| 20260509024542 | 62 | 323 | 4.0 | 11.0 | 0.00 | 0.00 | 0.00 | 33 | 1001.8 |
| 20260509023051 | 62 | 316 | 2.0 | 9.0 | 0.00 | 0.00 | 0.00 | 32 | 1001.6 |
| 20260509021544 | 63 | 0 | 1.0 | 6.0 | 0.00 | 0.00 | 0.00 | 32 | 1001.4 |
| 20260509020053 | 63 | 298 | 0.0 | 5.0 | 0.00 | 0.00 | 0.00 | 31 | 1001.1 |
| 20260509014542 | 65 | 318 | 1.0 | 9.0 | 0.00 | 0.00 | 0.00 | 31 | 1000.9 |
| 20260509013044 | 65 | 329 | 3.0 | 8.0 | 0.00 | 0.00 | 0.00 | 30 | 1000.7 |
| 20260509011554 | 66 | 325 | 3.0 | 11.0 | 0.00 | 0.00 | 0.00 | 30 | 1000.6 |
| 20260509010044 | 67 | 290 | 3.0 | 11.0 | 0.00 | 0.00 | 0.00 | 30 | 1000.5 |
| 20260509004544 | 68 | 321 | 4.0 | 11.0 | 0.00 | 0.00 | 0.00 | 29 | 1000.5 |
| 20260509003043 | 68 | 317 | 4.0 | 14.0 | 0.00 | 0.00 | 0.00 | 29 | 1000.4 |
| 20260509001539 | 69 | 323 | 2.0 | 11.0 | 0.00 | 0.00 | 0.00 | 28 | 1000.3 |
| 20260509000041 | 69 | 329 | 3.0 | 18.0 | 0.00 | 0.00 | 0.00 | 28 | 1000.4 |
| 20260508234543 | 70 | 279 | 6.0 | 16.0 | 0.00 | 0.00 | 0.00 | 27 | 1000.4 |
| 20260508233044 | 70 | 261 | 6.0 | 21.0 | 0.00 | 0.00 | 0.00 | 27 | 1000.3 |
| 20260508231543 | 70 | 253 | 5.0 | 18.0 | 0.00 | 0.00 | 0.00 | 28 | 1000.2 |
| 20260508230050 | 70 | 309 | 3.0 | 9.0 | 0.00 | 0.00 | 0.00 | 29 | 1000.4 |
| 20260508224551 | 70 | 335 | 3.0 | 12.0 | 0.00 | 0.00 | 0.00 | 27 | 1000.3 |
| 20260508223047 | 70 | 263 | 3.0 | 9.0 | 0.00 | 0.00 | 0.00 | 29 | 1000.6 |
| 20260508221548 | 70 | 55 | 3.0 | 9.0 | 0.00 | 0.00 | 0.00 | 28 | 1000.6 |
| 20260508220048 | 70 | 332 | 2.0 | 8.0 | 0.00 | 0.00 | 0.00 | 27 | 1000.8 |
| 20260508214547 | 70 | 252 | 4.0 | 13.0 | 0.00 | 0.00 | 0.00 | 28 | 1000.9 |
| 20260508213047 | 70 | 210 | 4.0 | 13.0 | 0.00 | 0.00 | 0.00 | 26 | 1001.1 |
| 20260508211548 | 71 | 294 | 5.0 | 14.0 | 0.00 | 0.00 | 0.00 | 25 | 1001.1 |
| 20260508210044 | 71 | 219 | 3.0 | 14.0 | 0.00 | 0.00 | 0.00 | 25 | 1001.2 |
| 20260508204555 | 70 | 217 | 5.0 | 18.0 | 0.00 | 0.00 | 0.00 | 24 | 1001.6 |
| 20260508203049 | 69 | 257 | 4.0 | 11.0 | 0.00 | 0.00 | 0.00 | 25 | 1001.8 |
| 20260508201552 | 68 | 262 | 4.0 | 14.0 | 0.00 | 0.00 | 0.00 | 26 | 1002.2 |
| 20260508200106 | 69 | 322 | 5.0 | 13.0 | 0.00 | 0.00 | 0.00 | 24 | 1002.3 |
| 20260508194541 | 70 | 213 | 4.0 | 12.0 | 0.00 | 0.00 | 0.00 | 24 | 1002.5 |
| 20260508193103 | 69 | 291 | 3.0 | 10.0 | 0.00 | 0.00 | 0.00 | 24 | 1002.8 |
| 20260508191542 | 69 | 26 | 5.0 | 18.0 | 0.00 | 0.00 | 0.00 | 26 | 1002.8 |
| 20260508190040 | 69 | 309 | 5.0 | 15.0 | 0.00 | 0.00 | 0.00 | 25 | 1003.0 |
| 20260508184546 | 69 | 286 | 2.0 | 12.0 | 0.00 | 0.00 | 0.00 | 26 | 1003.3 |
| 20260508183056 | 68 | 281 | 4.0 | 15.0 | 0.00 | 0.00 | 0.00 | 25 | 1003.5 |
| 20260508181559 | 68 | 350 | 4.0 | 13.0 | 0.00 | 0.00 | 0.00 | 24 | 1003.6 |
| 20260508180043 | 68 | 278 | 3.0 | 12.0 | 0.00 | 0.00 | 0.00 | 27 | 1003.7 |
| 20260508174544 | 67 | 311 | 2.0 | 13.0 | 0.00 | 0.00 | 0.00 | 27 | 1004.2 |
| 20260508173038 | 66 | 185 | 7.0 | 13.0 | 0.00 | 0.00 | 0.00 | 27 | 1004.5 |
| 20260508171542 | 66 | 270 | 5.0 | 15.0 | 0.00 | 0.00 | 0.00 | 27 | 1005.0 |
| 20260508170052 | 64 | 221 | 4.0 | 12.0 | 0.00 | 0.00 | 0.00 | 29 | 1005.1 |
| 20260508164546 | 65 | 184 | 4.0 | 11.0 | 0.00 | 0.00 | 0.00 | 30 | 1005.5 |
| 20260508163042 | 64 | 74 | 7.0 | 15.0 | 0.00 | 0.00 | 0.00 | 31 | 1005.7 |
| 20260508161539 | 64 | 0 | 3.0 | 18.0 | 0.00 | 0.00 | 0.00 | 31 | 1005.8 |
| 20260508160041 | 64 | 216 | 2.0 | 14.0 | 0.00 | 0.00 | 0.00 | 32 | 1005.9 |
| 20260508154604 | 62 | 173 | 9.0 | 18.0 | 0.00 | 0.00 | 0.00 | 32 | 1006.0 |
| 20260508153043 | 60 | 202 | 3.0 | 11.0 | 0.00 | 0.00 | 0.00 | 34 | 1006.2 |
| 20260508151541 | 60 | 206 | 5.0 | 12.0 | 0.00 | 0.00 | 0.00 | 34 | 1006.4 |
| 20260508150047 | 59 | 216 | 4.0 | 11.0 | 0.00 | 0.00 | 0.00 | 36 | 1006.4 |
| 20260508144544 | 57 | 185 | 6.0 | 14.0 | 0.00 | 0.00 | 0.00 | 36 | 1006.5 |
| 20260508143043 | 56 | 209 | 8.0 | 15.0 | 0.00 | 0.00 | 0.00 | 38 | 1006.7 |
| 20260508141542 | 55 | 220 | 6.0 | 16.0 | 0.00 | 0.00 | 0.00 | 39 | 1006.7 |
| 20260508140040 | 54 | 254 | 8.0 | 18.0 | 0.00 | 0.00 | 0.00 | 39 | 1006.9 |
| 20260508134554 | 52 | 184 | 9.0 | 19.0 | 0.00 | 0.00 | 0.00 | 40 | 1006.9 |
| 20260508133051 | 50 | 203 | 8.0 | 19.0 | 0.00 | 0.00 | 0.00 | 42 | 1007.1 |
| 20260508131547 | 49 | 187 | 9.0 | 17.0 | 0.00 | 0.00 | 0.00 | 42 | 1007.0 |
| 20260508130042 | 48 | 187 | 7.0 | 12.0 | 0.00 | 0.00 | 0.00 | 43 | 1007.0 |
| 20260508124545 | 46 | 193 | 5.0 | 13.0 | 0.00 | 0.00 | 0.00 | 46 | 1007.0 |
| 20260508123047 | 45 | 180 | 6.0 | 11.0 | 0.00 | 0.00 | 0.00 | 46 | 1007.0 |
| 20260508121538 | 44 | 202 | 5.0 | 10.0 | 0.00 | 0.00 | 0.00 | 47 | 1007.0 |
| 20260508120042 | 44 | 202 | 5.0 | 10.0 | 0.00 | 0.00 | 0.00 | 47 | 1007.0 |
| 20260508114542 | 43 | 221 | 5.0 | 11.0 | 0.00 | 0.00 | 0.00 | 47 | 1007.0 |
| 20260508113042 | 43 | 169 | 7.0 | 14.0 | 0.00 | 0.00 | 0.00 | 47 | 1007.0 |
| 20260508111540 | 42 | 192 | 6.0 | 13.0 | 0.00 | 0.00 | 0.00 | 48 | 1006.9 |
| 20260508110042 | 42 | 208 | 6.0 | 12.0 | 0.00 | 0.00 | 0.00 | 48 | 1006.9 |
| 20260508104544 | 42 | 186 | 6.0 | 10.0 | 0.00 | 0.00 | 0.00 | 48 | 1006.9 |
| 20260508103045 | 42 | 207 | 6.0 | 10.0 | 0.00 | 0.00 | 0.00 | 48 | 1006.9 |
| 20260508101549 | 42 | 195 | 6.0 | 12.0 | 0.00 | 0.00 | 0.00 | 48 | 1007.0 |
| 20260508100059 | 42 | 212 | 5.0 | 10.0 | 0.00 | 0.00 | 0.00 | 48 | 1007.0 |
| 20260508094546 | 42 | 209 | 6.0 | 11.0 | 0.00 | 0.00 | 0.00 | 48 | 1007.0 |
| 20260508093042 | 42 | 194 | 5.0 | 11.0 | 0.00 | 0.00 | 0.00 | 49 | 1007.1 |
| 20260508091547 | 42 | 209 | 5.0 | 10.0 | 0.00 | 0.00 | 0.00 | 49 | 1007.1 |
| 20260508090107 | 42 | 208 | 5.0 | 8.0 | 0.00 | 0.00 | 0.00 | 49 | 1007.1 |
| 20260508084548 | 42 | 207 | 5.0 | 9.0 | 0.00 | 0.00 | 0.00 | 49 | 1007.2 |
| 20260508083040 | 42 | 196 | 4.0 | 9.0 | 0.00 | 0.00 | 0.00 | 49 | 1007.1 |
| 20260508081602 | 42 | 196 | 4.0 | 8.0 | 0.00 | 0.00 | 0.00 | 48 | 1007.3 |
| 20260508080043 | 42 | 200 | 3.0 | 8.0 | 0.00 | 0.00 | 0.00 | 47 | 1007.4 |
| 20260508074546 | 42 | 188 | 3.0 | 7.0 | 0.00 | 0.00 | 0.00 | 46 | 1007.6 |
| 20260508073102 | 42 | 178 | 4.0 | 8.0 | 0.00 | 0.00 | 0.00 | 46 | 1007.6 |
| 20260508071548 | 43 | 181 | 4.0 | 8.0 | 0.00 | 0.00 | 0.00 | 45 | 1007.7 |
| 20260508070049 | 43 | 193 | 4.0 | 9.0 | 0.00 | 0.00 | 0.00 | 45 | 1007.9 |
| 20260508064547 | 44 | 191 | 4.0 | 10.0 | 0.00 | 0.00 | 0.00 | 44 | 1008.0 |
| 20260508063043 | 44 | 197 | 5.0 | 8.0 | 0.00 | 0.00 | 0.00 | 44 | 1008.1 |
| 20260508061543 | 44 | 186 | 5.0 | 8.0 | 0.00 | 0.00 | 0.00 | 44 | 1008.2 |
| 20260508060058 | 44 | 195 | 5.0 | 10.0 | 0.00 | 0.00 | 0.00 | 44 | 1008.3 |
| 20260508054538 | 43 | 200 | 5.0 | 8.0 | 0.00 | 0.00 | 0.00 | 45 | 1008.4 |
| 20260508053041 | 43 | 196 | 3.0 | 6.0 | 0.00 | 0.00 | 0.00 | 47 | 1008.5 |
| 20260508051604 | 42 | 188 | 4.0 | 6.0 | 0.00 | 0.00 | 0.00 | 49 | 1008.6 |
| 20260508050045 | 42 | 183 | 3.0 | 4.0 | 0.00 | 0.00 | 0.00 | 50 | 1008.7 |
| 20260508044547 | 42 | 192 | 2.0 | 4.0 | 0.00 | 0.00 | 0.00 | 49 | 1008.8 |
| 20260508043043 | 43 | 257 | 1.0 | 3.0 | 0.00 | 0.00 | 0.00 | 48 | 1008.8 |
| 20260508041541 | 43 | 257 | 1.0 | 3.0 | 0.00 | 0.00 | 0.00 | 48 | 1008.9 |
| 20260508040049 | 43 | 257 | 0.0 | 3.0 | 0.00 | 0.00 | 0.00 | 47 | 1009.0 |